sensor_id;sensor_type;location;lat;lon;timestamp;pressure;altitude;pressure_sealevel;temperature;humidity
27334;BME280;14817;57.104;-2.094;2022-09-13T00:00:56;99945.16;;;12.01;73.40
27334;BME280;14817;57.104;-2.094;2022-09-13T00:03:24;99939.91;;;12.08;73.13
27334;BME280;14817;57.104;-2.094;2022-09-13T00:05:51;99947.03;;;12.00;73.56
27334;BME280;14817;57.104;-2.094;2022-09-13T00:08:19;99935.53;;;12.15;72.70
27334;BME280;14817;57.104;-2.094;2022-09-13T00:10:46;99936.91;;;12.11;73.25
27334;BME280;14817;57.104;-2.094;2022-09-13T00:13:15;99935.16;;;12.18;73.24
27334;BME280;14817;57.104;-2.094;2022-09-13T00:15:44;99933.34;;;12.18;73.72
27334;BME280;14817;57.104;-2.094;2022-09-13T00:18:12;99931.13;;;12.22;73.57
27334;BME280;14817;57.104;-2.094;2022-09-13T00:20:39;99935.03;;;12.11;74.09
27334;BME280;14817;57.104;-2.094;2022-09-13T00:23:05;99934.22;;;12.11;74.04
27334;BME280;14817;57.104;-2.094;2022-09-13T00:25:32;99926.81;;;12.13;74.62
27334;BME280;14817;57.104;-2.094;2022-09-13T00:27:59;99928.38;;;12.30;74.07
27334;BME280;14817;57.104;-2.094;2022-09-13T00:30:26;99943.31;;;12.33;74.22
27334;BME280;14817;57.104;-2.094;2022-09-13T00:32:54;99936.72;;;12.35;74.09
27334;BME280;14817;57.104;-2.094;2022-09-13T00:35:21;99931.41;;;12.50;73.79
27334;BME280;14817;57.104;-2.094;2022-09-13T00:37:48;99929.72;;;12.34;74.29
27334;BME280;14817;57.104;-2.094;2022-09-13T00:40:15;99925.38;;;12.33;74.34
27334;BME280;14817;57.104;-2.094;2022-09-13T00:42:42;99921.03;;;12.24;74.87
27334;BME280;14817;57.104;-2.094;2022-09-13T00:50:39;99917.44;;;12.40;74.40
27334;BME280;14817;57.104;-2.094;2022-09-13T00:53:15;99919.78;;;12.35;74.63
27334;BME280;14817;57.104;-2.094;2022-09-13T00:56:07;99914.84;;;12.46;74.71
27334;BME280;14817;57.104;-2.094;2022-09-13T00:58:48;99915.84;;;12.45;74.52
27334;BME280;14817;57.104;-2.094;2022-09-13T01:01:17;99924.94;;;12.44;74.95
27334;BME280;14817;57.104;-2.094;2022-09-13T01:03:47;99907.09;;;12.52;74.52
27334;BME280;14817;57.104;-2.094;2022-09-13T01:06:17;99922.38;;;12.51;74.61
27334;BME280;14817;57.104;-2.094;2022-09-13T01:08:48;99917.53;;;12.46;74.70
27334;BME280;14817;57.104;-2.094;2022-09-13T01:11:23;99923.19;;;12.52;74.37
27334;BME280;14817;57.104;-2.094;2022-09-13T01:13:53;99927.84;;;12.58;74.36
27334;BME280;14817;57.104;-2.094;2022-09-13T01:16:21;99922.47;;;12.58;74.41
27334;BME280;14817;57.104;-2.094;2022-09-13T01:18:48;99909.31;;;12.63;74.87
27334;BME280;14817;57.104;-2.094;2022-09-13T01:32:25;99900.63;;;12.61;74.41
27334;BME280;14817;57.104;-2.094;2022-09-13T01:48:14;99913.72;;;12.41;75.54
27334;BME280;14817;57.104;-2.094;2022-09-13T01:55:59;99922.97;;;12.61;74.68
27334;BME280;14817;57.104;-2.094;2022-09-13T01:58:41;99918.91;;;12.65;74.32
27334;BME280;14817;57.104;-2.094;2022-09-13T02:01:24;99913.03;;;12.62;74.85
27334;BME280;14817;57.104;-2.094;2022-09-13T02:04:01;99928.13;;;12.63;74.63
27334;BME280;14817;57.104;-2.094;2022-09-13T02:06:33;99926.66;;;12.60;74.70
27334;BME280;14817;57.104;-2.094;2022-09-13T02:09:08;99931.31;;;12.66;74.66
27334;BME280;14817;57.104;-2.094;2022-09-13T02:11:37;99920.00;;;12.71;74.53
27334;BME280;14817;57.104;-2.094;2022-09-13T02:14:14;99919.84;;;12.73;74.56
27334;BME280;14817;57.104;-2.094;2022-09-13T02:16:52;99924.72;;;12.69;74.64
27334;BME280;14817;57.104;-2.094;2022-09-13T02:19:32;99924.56;;;12.71;74.90
27334;BME280;14817;57.104;-2.094;2022-09-13T02:22:02;99924.44;;;12.64;75.23
27334;BME280;14817;57.104;-2.094;2022-09-13T02:24:43;99934.16;;;12.65;75.37
27334;BME280;14817;57.104;-2.094;2022-09-13T02:27:15;99925.09;;;12.66;75.37
27334;BME280;14817;57.104;-2.094;2022-09-13T02:29:48;99920.38;;;12.68;75.33
27334;BME280;14817;57.104;-2.094;2022-09-13T02:32:19;99916.38;;;12.64;75.34
27334;BME280;14817;57.104;-2.094;2022-09-13T02:34:52;99935.53;;;12.61;75.28
27334;BME280;14817;57.104;-2.094;2022-09-13T02:37:22;99936.19;;;12.63;75.62
27334;BME280;14817;57.104;-2.094;2022-09-13T02:39:54;99937.41;;;12.60;75.38
27334;BME280;14817;57.104;-2.094;2022-09-13T02:42:37;99929.53;;;12.59;75.60
27334;BME280;14817;57.104;-2.094;2022-09-13T02:45:08;99929.34;;;12.60;75.89
27334;BME280;14817;57.104;-2.094;2022-09-13T02:56:01;99928.28;;;12.46;76.58
27334;BME280;14817;57.104;-2.094;2022-09-13T02:58:55;99934.66;;;12.45;76.67
27334;BME280;14817;57.104;-2.094;2022-09-13T03:01:24;99942.38;;;12.49;76.71
27334;BME280;14817;57.104;-2.094;2022-09-13T03:03:51;99949.44;;;12.41;77.27
27334;BME280;14817;57.104;-2.094;2022-09-13T03:06:23;99948.78;;;12.39;77.38
27334;BME280;14817;57.104;-2.094;2022-09-13T03:08:52;99947.13;;;12.38;77.69
27334;BME280;14817;57.104;-2.094;2022-09-13T03:11:39;99939.91;;;12.39;77.75
27334;BME280;14817;57.104;-2.094;2022-09-13T03:17:01;99959.78;;;12.30;78.01
27334;BME280;14817;57.104;-2.094;2022-09-13T03:30:37;99940.53;;;12.18;79.26
27334;BME280;14817;57.104;-2.094;2022-09-13T03:35:54;99948.38;;;12.28;78.61
27334;BME280;14817;57.104;-2.094;2022-09-13T03:38:31;99942.69;;;12.22;79.21
27334;BME280;14817;57.104;-2.094;2022-09-13T03:41:08;99951.41;;;12.24;78.79
27334;BME280;14817;57.104;-2.094;2022-09-13T03:46:36;99943.72;;;12.21;79.02
27334;BME280;14817;57.104;-2.094;2022-09-13T03:49:08;99947.59;;;12.19;79.15
27334;BME280;14817;57.104;-2.094;2022-09-13T03:51:37;99945.75;;;12.19;79.20
27334;BME280;14817;57.104;-2.094;2022-09-13T03:54:07;99947.59;;;12.19;79.42
27334;BME280;14817;57.104;-2.094;2022-09-13T03:56:35;99951.66;;;12.15;79.40
27334;BME280;14817;57.104;-2.094;2022-09-13T03:59:02;99941.56;;;12.17;79.06
27334;BME280;14817;57.104;-2.094;2022-09-13T04:01:29;99930.50;;;12.12;79.24
27334;BME280;14817;57.104;-2.094;2022-09-13T04:03:56;99935.53;;;12.15;78.98
27334;BME280;14817;57.104;-2.094;2022-09-13T04:06:23;99935.38;;;12.16;78.52
27334;BME280;14817;57.104;-2.094;2022-09-13T04:08:50;99937.19;;;12.16;78.52
27334;BME280;14817;57.104;-2.094;2022-09-13T04:11:17;99933.97;;;12.20;78.10
27334;BME280;14817;57.104;-2.094;2022-09-13T04:13:46;99927.78;;;12.20;77.86
27334;BME280;14817;57.104;-2.094;2022-09-13T04:16:13;99938.19;;;12.23;77.71
27334;BME280;14817;57.104;-2.094;2022-09-13T04:18:40;99933.47;;;12.25;77.66
27334;BME280;14817;57.104;-2.094;2022-09-13T04:21:07;99940.31;;;12.28;77.54
27334;BME280;14817;57.104;-2.094;2022-09-13T04:23:34;99938.97;;;12.32;77.20
27334;BME280;14817;57.104;-2.094;2022-09-13T04:26:02;99945.03;;;12.25;77.43
27334;BME280;14817;57.104;-2.094;2022-09-13T04:28:29;99928.44;;;12.22;77.42
27334;BME280;14817;57.104;-2.094;2022-09-13T04:30:56;99923.72;;;12.24;77.62
27334;BME280;14817;57.104;-2.094;2022-09-13T04:33:23;99923.06;;;12.22;77.56
27334;BME280;14817;57.104;-2.094;2022-09-13T04:35:57;99911.34;;;12.23;77.49
27334;BME280;14817;57.104;-2.094;2022-09-13T04:38:24;99925.41;;;12.25;77.92
27334;BME280;14817;57.104;-2.094;2022-09-13T04:40:54;99923.38;;;12.27;77.46
27334;BME280;14817;57.104;-2.094;2022-09-13T04:43:22;99923.72;;;12.24;77.84
27334;BME280;14817;57.104;-2.094;2022-09-13T04:45:49;99927.06;;;12.26;78.04
27334;BME280;14817;57.104;-2.094;2022-09-13T04:48:16;99928.59;;;12.20;78.24
27334;BME280;14817;57.104;-2.094;2022-09-13T04:50:43;99926.47;;;12.16;78.76
27334;BME280;14817;57.104;-2.094;2022-09-13T04:53:10;99932.97;;;12.21;78.67
27334;BME280;14817;57.104;-2.094;2022-09-13T04:55:37;99935.16;;;12.18;78.83
27334;BME280;14817;57.104;-2.094;2022-09-13T04:58:04;99936.91;;;12.11;79.34
27334;BME280;14817;57.104;-2.094;2022-09-13T05:00:31;99932.19;;;12.13;79.44
27334;BME280;14817;57.104;-2.094;2022-09-13T05:02:59;99941.44;;;12.10;79.30
27334;BME280;14817;57.104;-2.094;2022-09-13T05:05:26;99945.28;;;12.08;79.54
27334;BME280;14817;57.104;-2.094;2022-09-13T05:07:54;99938.28;;;12.07;79.50
27334;BME280;14817;57.104;-2.094;2022-09-13T05:10:21;99931.69;;;12.09;79.53
27334;BME280;14817;57.104;-2.094;2022-09-13T05:12:48;99946.81;;;12.10;79.21
27334;BME280;14817;57.104;-2.094;2022-09-13T05:15:15;99941.59;;;12.09;79.55
27334;BME280;14817;57.104;-2.094;2022-09-13T05:17:42;99953.00;;;12.11;79.50
27334;BME280;14817;57.104;-2.094;2022-09-13T05:20:09;99962.41;;;12.07;79.33
27334;BME280;14817;57.104;-2.094;2022-09-13T05:22:35;99960.28;;;12.02;79.78
27334;BME280;14817;57.104;-2.094;2022-09-13T05:25:02;99963.78;;;12.02;79.54
27334;BME280;14817;57.104;-2.094;2022-09-13T05:27:29;99983.59;;;12.01;79.59
27334;BME280;14817;57.104;-2.094;2022-09-13T05:29:56;99979.06;;;12.02;79.35
27334;BME280;14817;57.104;-2.094;2022-09-13T05:32:23;99982.56;;;12.02;79.32
27334;BME280;14817;57.104;-2.094;2022-09-13T05:34:49;99993.84;;;11.98;79.48
27334;BME280;14817;57.104;-2.094;2022-09-13T05:37:17;99993.47;;;12.01;79.25
27334;BME280;14817;57.104;-2.094;2022-09-13T05:39:44;99993.00;;;11.97;79.52
27334;BME280;14817;57.104;-2.094;2022-09-13T05:42:30;99992.88;;;11.91;79.63
27334;BME280;14817;57.104;-2.094;2022-09-13T05:44:57;99996.69;;;11.96;79.33
27334;BME280;14817;57.104;-2.094;2022-09-13T05:47:24;100000.56;;;11.94;79.25
27334;BME280;14817;57.104;-2.094;2022-09-13T05:49:50;100014.47;;;11.97;79.44
27334;BME280;14817;57.104;-2.094;2022-09-13T05:52:35;100016.81;;;11.92;79.43
27334;BME280;14817;57.104;-2.094;2022-09-13T05:55:02;100023.22;;;11.91;79.51
27334;BME280;14817;57.104;-2.094;2022-09-13T05:57:29;100035.13;;;11.89;79.57
27334;BME280;14817;57.104;-2.094;2022-09-13T05:59:55;100044.31;;;11.86;79.30
27334;BME280;14817;57.104;-2.094;2022-09-13T06:02:22;100039.31;;;11.91;79.22
27334;BME280;14817;57.104;-2.094;2022-09-13T06:04:49;100036.47;;;11.93;79.28
27334;BME280;14817;57.104;-2.094;2022-09-13T06:07:16;100041.97;;;11.99;78.58
27334;BME280;14817;57.104;-2.094;2022-09-13T06:09:43;100045.81;;;11.97;78.63
27334;BME280;14817;57.104;-2.094;2022-09-13T06:12:10;100040.63;;;12.03;78.45
27334;BME280;14817;57.104;-2.094;2022-09-13T06:14:37;100049.97;;;12.08;77.85
27334;BME280;14817;57.104;-2.094;2022-09-13T06:17:04;100049.97;;;12.08;77.84
27334;BME280;14817;57.104;-2.094;2022-09-13T06:19:30;100053.38;;;12.01;77.93
27334;BME280;14817;57.104;-2.094;2022-09-13T06:21:57;100069.47;;;12.01;77.97
27334;BME280;14817;57.104;-2.094;2022-09-13T06:24:24;100058.38;;;12.04;77.81
27334;BME280;14817;57.104;-2.094;2022-09-13T06:26:51;100072.31;;;12.00;78.21
27334;BME280;14817;57.104;-2.094;2022-09-13T06:29:17;100070.13;;;12.03;77.81
27334;BME280;14817;57.104;-2.094;2022-09-13T06:31:44;100068.28;;;12.04;77.91
27334;BME280;14817;57.104;-2.094;2022-09-13T06:34:12;100068.44;;;12.11;77.43
27334;BME280;14817;57.104;-2.094;2022-09-13T06:36:41;100064.56;;;12.05;77.85
27334;BME280;14817;57.104;-2.094;2022-09-13T06:39:08;100065.56;;;12.12;77.05
27334;BME280;14817;57.104;-2.094;2022-09-13T06:41:35;100067.91;;;12.15;76.85
27334;BME280;14817;57.104;-2.094;2022-09-13T06:44:03;100072.28;;;12.16;76.69
27334;BME280;14817;57.104;-2.094;2022-09-13T06:46:32;100084.97;;;12.22;76.70
27334;BME280;14817;57.104;-2.094;2022-09-13T06:49:06;100078.75;;;12.30;76.63
27334;BME280;14817;57.104;-2.094;2022-09-13T06:51:34;100074.84;;;12.41;75.77
27334;BME280;14817;57.104;-2.094;2022-09-13T06:54:03;100080.16;;;12.49;75.30
27334;BME280;14817;57.104;-2.094;2022-09-13T06:56:35;100072.03;;;12.65;74.86
27334;BME280;14817;57.104;-2.094;2022-09-13T06:59:05;100084.94;;;12.70;74.60
27334;BME280;14817;57.104;-2.094;2022-09-13T07:01:34;100082.19;;;13.01;73.98
27334;BME280;14817;57.104;-2.094;2022-09-13T07:04:11;100088.88;;;13.05;73.54
27334;BME280;14817;57.104;-2.094;2022-09-13T07:06:41;100099.22;;;12.94;73.47
27334;BME280;14817;57.104;-2.094;2022-09-13T07:09:11;100088.75;;;12.99;72.78
27334;BME280;14817;57.104;-2.094;2022-09-13T07:11:40;100096.00;;;12.98;73.19
27334;BME280;14817;57.104;-2.094;2022-09-13T07:14:07;100097.00;;;13.20;72.81
27334;BME280;14817;57.104;-2.094;2022-09-13T07:16:37;100091.09;;;13.25;71.85
27334;BME280;14817;57.104;-2.094;2022-09-13T07:19:12;100089.91;;;13.65;70.25
27334;BME280;14817;57.104;-2.094;2022-09-13T07:21:39;100090.22;;;13.71;70.40
27334;BME280;14817;57.104;-2.094;2022-09-13T07:24:06;100098.16;;;13.49;70.57
27334;BME280;14817;57.104;-2.094;2022-09-13T07:26:33;100098.38;;;13.62;69.74
27334;BME280;14817;57.104;-2.094;2022-09-13T07:29:02;100083.44;;;13.75;70.10
27334;BME280;14817;57.104;-2.094;2022-09-13T07:31:32;100088.84;;;13.75;69.88
27334;BME280;14817;57.104;-2.094;2022-09-13T07:34:03;100095.06;;;13.90;69.03
27334;BME280;14817;57.104;-2.094;2022-09-13T07:36:32;100094.03;;;13.91;68.64
27334;BME280;14817;57.104;-2.094;2022-09-13T07:39:00;100090.97;;;13.79;69.23
27334;BME280;14817;57.104;-2.094;2022-09-13T07:41:28;100099.25;;;13.55;69.26
27334;BME280;14817;57.104;-2.094;2022-09-13T07:43:56;100103.38;;;13.65;68.86
27334;BME280;14817;57.104;-2.094;2022-09-13T07:46:25;100091.75;;;13.50;69.31
27334;BME280;14817;57.104;-2.094;2022-09-13T07:48:53;100095.78;;;13.69;69.33
27334;BME280;14817;57.104;-2.094;2022-09-13T07:51:31;100091.59;;;13.66;68.66
27334;BME280;14817;57.104;-2.094;2022-09-13T07:54:01;100103.81;;;13.54;69.64
27334;BME280;14817;57.104;-2.094;2022-09-13T07:56:30;100112.06;;;13.53;69.51
27334;BME280;14817;57.104;-2.094;2022-09-13T07:58:59;100098.09;;;13.57;69.49
27334;BME280;14817;57.104;-2.094;2022-09-13T08:01:28;100106.19;;;13.72;69.15
27334;BME280;14817;57.104;-2.094;2022-09-13T08:03:58;100111.91;;;13.69;68.94
27334;BME280;14817;57.104;-2.094;2022-09-13T08:06:28;100109.31;;;13.76;68.19
27334;BME280;14817;57.104;-2.094;2022-09-13T08:08:56;100119.00;;;13.70;68.92
27334;BME280;14817;57.104;-2.094;2022-09-13T08:11:35;100122.44;;;13.79;68.93
27334;BME280;14817;57.104;-2.094;2022-09-13T08:14:03;100121.22;;;13.81;68.50
27334;BME280;14817;57.104;-2.094;2022-09-13T08:16:31;100127.94;;;14.00;68.58
27334;BME280;14817;57.104;-2.094;2022-09-13T08:19:00;100135.25;;;14.81;66.27
27334;BME280;14817;57.104;-2.094;2022-09-13T08:21:32;100131.88;;;15.37;63.96
27334;BME280;14817;57.104;-2.094;2022-09-13T08:24:00;100113.41;;;16.18;60.33
27334;BME280;14817;57.104;-2.094;2022-09-13T08:26:28;100120.00;;;16.92;58.24
27334;BME280;14817;57.104;-2.094;2022-09-13T08:28:57;100120.34;;;16.76;57.54
27334;BME280;14817;57.104;-2.094;2022-09-13T08:31:25;100120.06;;;17.99;55.65
27334;BME280;14817;57.104;-2.094;2022-09-13T08:33:52;100118.16;;;18.77;52.32
27334;BME280;14817;57.104;-2.094;2022-09-13T08:36:19;100108.94;;;19.24;50.67
27334;BME280;14817;57.104;-2.094;2022-09-13T08:38:59;100116.50;;;18.83;51.48
27334;BME280;14817;57.104;-2.094;2022-09-13T08:44:41;100120.06;;;19.15;49.16
27334;BME280;14817;57.104;-2.094;2022-09-13T08:49:45;100125.28;;;19.17;48.72
27334;BME280;14817;57.104;-2.094;2022-09-13T08:54:40;100121.53;;;18.14;49.97
27334;BME280;14817;57.104;-2.094;2022-09-13T08:57:25;100115.91;;;19.13;48.03
27334;BME280;14817;57.104;-2.094;2022-09-13T09:02:47;100109.63;;;18.74;49.19
27334;BME280;14817;57.104;-2.094;2022-09-13T09:05:23;100138.66;;;18.73;49.14
27334;BME280;14817;57.104;-2.094;2022-09-13T09:07:59;100139.28;;;17.90;50.27
27334;BME280;14817;57.104;-2.094;2022-09-13T09:10:38;100131.31;;;17.62;51.84
27334;BME280;14817;57.104;-2.094;2022-09-13T09:13:26;100142.16;;;17.62;52.85
27334;BME280;14817;57.104;-2.094;2022-09-13T09:16:31;100146.34;;;17.58;51.71
27334;BME280;14817;57.104;-2.094;2022-09-13T09:19:07;100143.84;;;17.43;51.80
27334;BME280;14817;57.104;-2.094;2022-09-13T09:21:35;100138.88;;;17.87;50.65
27334;BME280;14817;57.104;-2.094;2022-09-13T09:24:03;100142.59;;;17.86;50.37
27334;BME280;14817;57.104;-2.094;2022-09-13T09:26:30;100134.22;;;18.21;49.60
27334;BME280;14817;57.104;-2.094;2022-09-13T09:29:14;100143.97;;;18.48;48.72
27334;BME280;14817;57.104;-2.094;2022-09-13T09:31:47;100154.72;;;18.68;47.83
27334;BME280;14817;57.104;-2.094;2022-09-13T09:37:19;100163.22;;;18.92;47.48
27334;BME280;14817;57.104;-2.094;2022-09-13T09:39:51;100163.03;;;19.25;47.99
27334;BME280;14817;57.104;-2.094;2022-09-13T09:42:25;100157.47;;;19.13;46.83
27334;BME280;14817;57.104;-2.094;2022-09-13T09:45:23;100145.88;;;19.88;45.01
27334;BME280;14817;57.104;-2.094;2022-09-13T09:47:51;100159.25;;;19.58;44.85
27334;BME280;14817;57.104;-2.094;2022-09-13T09:50:25;100150.03;;;19.34;45.19
27334;BME280;14817;57.104;-2.094;2022-09-13T09:55:50;100138.81;;;19.24;46.01
27334;BME280;14817;57.104;-2.094;2022-09-13T09:58:38;100141.03;;;18.43;47.26
27334;BME280;14817;57.104;-2.094;2022-09-13T10:01:17;100149.84;;;18.32;47.60
27334;BME280;14817;57.104;-2.094;2022-09-13T10:03:51;100151.13;;;17.63;49.03
27334;BME280;14817;57.104;-2.094;2022-09-13T10:06:21;100158.44;;;17.69;49.39
27334;BME280;14817;57.104;-2.094;2022-09-13T10:09:14;100159.22;;;17.43;50.37
27334;BME280;14817;57.104;-2.094;2022-09-13T10:11:45;100164.16;;;17.12;51.22
27334;BME280;14817;57.104;-2.094;2022-09-13T10:14:42;100164.69;;;17.83;50.30
27334;BME280;14817;57.104;-2.094;2022-09-13T10:17:22;100160.75;;;18.77;47.85
27334;BME280;14817;57.104;-2.094;2022-09-13T10:19:59;100165.91;;;18.92;46.77
27334;BME280;14817;57.104;-2.094;2022-09-13T10:22:29;100161.19;;;19.51;45.76
27334;BME280;14817;57.104;-2.094;2022-09-13T10:25:21;100160.06;;;19.65;45.62
27334;BME280;14817;57.104;-2.094;2022-09-13T10:27:54;100157.88;;;19.49;46.17
27334;BME280;14817;57.104;-2.094;2022-09-13T10:30:33;100166.31;;;19.34;45.63
27334;BME280;14817;57.104;-2.094;2022-09-13T10:33:03;100158.09;;;18.64;47.52
27334;BME280;14817;57.104;-2.094;2022-09-13T10:35:31;100152.84;;;19.21;46.54
27334;BME280;14817;57.104;-2.094;2022-09-13T10:37:59;100140.09;;;19.21;46.01
27334;BME280;14817;57.104;-2.094;2022-09-13T10:40:30;100137.50;;;18.43;46.90
27334;BME280;14817;57.104;-2.094;2022-09-13T10:43:02;100132.03;;;18.63;47.49
27334;BME280;14817;57.104;-2.094;2022-09-13T10:45:30;100137.75;;;18.93;47.21
27334;BME280;14817;57.104;-2.094;2022-09-13T10:48:18;100151.97;;;19.52;45.38
27334;BME280;14817;57.104;-2.094;2022-09-13T10:51:19;100154.47;;;20.10;44.89
27334;BME280;14817;57.104;-2.094;2022-09-13T10:53:47;100154.59;;;19.72;45.63
27334;BME280;14817;57.104;-2.094;2022-09-13T10:56:26;100147.53;;;19.32;46.28
27334;BME280;14817;57.104;-2.094;2022-09-13T11:07:20;100134.84;;;18.88;47.90
27334;BME280;14817;57.104;-2.094;2022-09-13T11:12:51;100130.91;;;18.77;47.07
27334;BME280;14817;57.104;-2.094;2022-09-13T11:32:01;100133.19;;;18.87;46.67
27334;BME280;14817;57.104;-2.094;2022-09-13T11:55:14;100112.59;;;18.66;49.24
27334;BME280;14817;57.104;-2.094;2022-09-13T11:57:50;100124.13;;;18.54;48.37
27334;BME280;14817;57.104;-2.094;2022-09-13T12:00:21;100112.88;;;18.51;49.58
27334;BME280;14817;57.104;-2.094;2022-09-13T12:05:32;100118.09;;;18.39;48.72
27334;BME280;14817;57.104;-2.094;2022-09-13T12:08:05;100112.66;;;18.52;49.96
27334;BME280;14817;57.104;-2.094;2022-09-13T12:10:43;100112.28;;;18.42;48.95
27334;BME280;14817;57.104;-2.094;2022-09-13T12:13:17;100117.47;;;18.50;48.36
27334;BME280;14817;57.104;-2.094;2022-09-13T12:15:50;100113.97;;;18.30;48.05
27334;BME280;14817;57.104;-2.094;2022-09-13T12:18:28;100113.94;;;18.50;48.64
27334;BME280;14817;57.104;-2.094;2022-09-13T12:21:04;100106.81;;;18.49;48.08
27334;BME280;14817;57.104;-2.094;2022-09-13T12:23:37;100119.59;;;18.35;48.72
27334;BME280;14817;57.104;-2.094;2022-09-13T12:26:19;100108.19;;;18.65;49.00
27334;BME280;14817;57.104;-2.094;2022-09-13T12:28:51;100108.31;;;18.38;49.39
27334;BME280;14817;57.104;-2.094;2022-09-13T12:31:25;100111.19;;;18.56;49.24
27334;BME280;14817;57.104;-2.094;2022-09-13T12:33:52;100109.50;;;18.55;48.72
27334;BME280;14817;57.104;-2.094;2022-09-13T12:42:35;100090.25;;;18.19;49.57
27334;BME280;14817;57.104;-2.094;2022-09-13T12:53:49;100077.19;;;18.47;49.59
27334;BME280;14817;57.104;-2.094;2022-09-13T13:01:35;100071.44;;;18.75;49.11
27334;BME280;14817;57.104;-2.094;2022-09-13T13:04:14;100083.22;;;18.56;48.52
27334;BME280;14817;57.104;-2.094;2022-09-13T13:06:52;100070.13;;;18.46;48.78
27334;BME280;14817;57.104;-2.094;2022-09-13T13:11:57;100091.97;;;18.58;48.24
27334;BME280;14817;57.104;-2.094;2022-09-13T13:16:53;100082.38;;;18.55;47.85
27334;BME280;14817;57.104;-2.094;2022-09-13T13:19:31;100077.16;;;18.61;47.48
27334;BME280;14817;57.104;-2.094;2022-09-13T13:25:34;100078.88;;;18.48;47.71
27334;BME280;14817;57.104;-2.094;2022-09-13T13:33:59;100089.53;;;18.43;47.99
27334;BME280;14817;57.104;-2.094;2022-09-13T13:36:29;100082.38;;;18.55;47.42
27334;BME280;14817;57.104;-2.094;2022-09-13T13:39:00;100088.19;;;18.66;49.10
27334;BME280;14817;57.104;-2.094;2022-09-13T13:41:37;100093.69;;;18.39;54.37
27334;BME280;14817;57.104;-2.094;2022-09-13T13:59:56;100079.91;;;17.22;60.86
27334;BME280;14817;57.104;-2.094;2022-09-13T14:02:52;100087.59;;;17.32;60.75
27334;BME280;14817;57.104;-2.094;2022-09-13T14:19:41;100069.91;;;17.29;61.86
27334;BME280;14817;57.104;-2.094;2022-09-13T14:24:47;100074.25;;;17.17;62.00
27334;BME280;14817;57.104;-2.094;2022-09-13T14:27:35;100078.00;;;17.09;61.75
27334;BME280;14817;57.104;-2.094;2022-09-13T14:30:30;100068.84;;;17.10;62.01
27334;BME280;14817;57.104;-2.094;2022-09-13T14:32:58;100077.16;;;17.09;62.29
27334;BME280;14817;57.104;-2.094;2022-09-13T14:35:33;100065.69;;;17.07;62.07
27334;BME280;14817;57.104;-2.094;2022-09-13T14:38:23;100066.13;;;17.04;62.97
27334;BME280;14817;57.104;-2.094;2022-09-13T14:40:52;100075.50;;;17.01;63.23
27334;BME280;14817;57.104;-2.094;2022-09-13T14:43:25;100074.69;;;17.07;63.49
27334;BME280;14817;57.104;-2.094;2022-09-13T14:45:58;100066.88;;;16.78;64.08
27334;BME280;14817;57.104;-2.094;2022-09-13T14:48:40;100075.25;;;16.96;63.92
27334;BME280;14817;57.104;-2.094;2022-09-13T14:51:16;100069.66;;;17.04;63.70
27334;BME280;14817;57.104;-2.094;2022-09-13T14:53:49;100066.94;;;16.98;63.24
27334;BME280;14817;57.104;-2.094;2022-09-13T14:56:29;100072.59;;;17.16;62.85
27334;BME280;14817;57.104;-2.094;2022-09-13T14:58:59;100077.13;;;16.96;62.16
27334;BME280;14817;57.104;-2.094;2022-09-13T15:01:34;100083.78;;;16.93;62.55
27334;BME280;14817;57.104;-2.094;2022-09-13T15:04:02;100082.09;;;16.85;63.02
27334;BME280;14817;57.104;-2.094;2022-09-13T15:06:33;100088.50;;;16.71;63.57
27334;BME280;14817;57.104;-2.094;2022-09-13T15:11:55;100077.81;;;16.49;65.69
27334;BME280;14817;57.104;-2.094;2022-09-13T15:14:28;100070.06;;;16.40;66.10
27334;BME280;14817;57.104;-2.094;2022-09-13T15:17:08;100070.09;;;16.46;66.76
27334;BME280;14817;57.104;-2.094;2022-09-13T15:19:38;100070.28;;;16.38;67.07
27334;BME280;14817;57.104;-2.094;2022-09-13T15:22:20;100071.84;;;16.19;67.17
27334;BME280;14817;57.104;-2.094;2022-09-13T15:24:51;100072.66;;;16.13;67.45
27334;BME280;14817;57.104;-2.094;2022-09-13T15:27:25;100075.09;;;16.01;67.67
27334;BME280;14817;57.104;-2.094;2022-09-13T15:29:58;100067.69;;;16.17;67.59
27334;BME280;14817;57.104;-2.094;2022-09-13T15:32:40;100057.03;;;16.08;67.46
27334;BME280;14817;57.104;-2.094;2022-09-13T15:35:29;100065.41;;;16.13;67.49
27334;BME280;14817;57.104;-2.094;2022-09-13T15:38:06;100058.53;;;16.11;68.02
27334;BME280;14817;57.104;-2.094;2022-09-13T15:40:43;100063.94;;;15.83;68.27
27334;BME280;14817;57.104;-2.094;2022-09-13T15:43:09;100055.69;;;15.91;68.71
27334;BME280;14817;57.104;-2.094;2022-09-13T15:45:36;100056.59;;;15.98;68.71
27334;BME280;14817;57.104;-2.094;2022-09-13T15:48:03;100046.31;;;15.87;69.06
27334;BME280;14817;57.104;-2.094;2022-09-13T15:50:32;100058.66;;;15.96;69.69
27334;BME280;14817;57.104;-2.094;2022-09-13T15:53:00;100050.56;;;15.96;69.72
27334;BME280;14817;57.104;-2.094;2022-09-13T15:55:27;100056.75;;;15.90;69.92
27334;BME280;14817;57.104;-2.094;2022-09-13T15:57:54;100051.16;;;15.70;70.94
27334;BME280;14817;57.104;-2.094;2022-09-13T16:00:23;100049.63;;;15.82;71.18
27334;BME280;14817;57.104;-2.094;2022-09-13T16:02:51;100042.53;;;15.75;71.03
27334;BME280;14817;57.104;-2.094;2022-09-13T16:05:18;100045.28;;;15.81;71.46
27334;BME280;14817;57.104;-2.094;2022-09-13T16:07:45;100051.16;;;15.70;71.55
27334;BME280;14817;57.104;-2.094;2022-09-13T16:10:18;100061.06;;;15.56;72.23
27334;BME280;14817;57.104;-2.094;2022-09-13T16:12:45;100064.38;;;15.58;72.76
27334;BME280;14817;57.104;-2.094;2022-09-13T16:15:12;100066.94;;;15.66;72.78
27334;BME280;14817;57.104;-2.094;2022-09-13T16:17:40;100051.38;;;15.68;72.94
27334;BME280;14817;57.104;-2.094;2022-09-13T16:20:11;100056.84;;;15.75;73.06
27334;BME280;14817;57.104;-2.094;2022-09-13T16:22:38;100054.34;;;15.74;73.03
27334;BME280;14817;57.104;-2.094;2022-09-13T16:25:05;100045.31;;;15.60;73.56
27334;BME280;14817;57.104;-2.094;2022-09-13T16:27:32;100054.38;;;15.52;74.20